Terminal Aerodrome Forecast
Issued by NWS Shreveport, LA

Home | Current Version | Previous Version | Text Only | Print | Product List | Glossary On
Versions: 1 2 3 4 5 6 7 8 9 10 11 12 13 14 15 16 17 18 19 20 21
000
FTUS44 KSHV 261100 RRA
TAFMLU
TAF
KMLU 261141Z 2612/2712 21003KT 3SM BR FEW250
     FM261500 23007KT P6SM SCT030
     FM262100 21008KT P6SM SCT050 SCT250
     FM270100 18004KT P6SM SKC=

USA.gov is the U.S. government's official web portal to all federal, state and local government web resources and services.